sensor_id;sensor_type;location;lat;lon;timestamp;P1;durP1;ratioP1;P2;durP2;ratioP2
31818;SDS011;18384;48.860;9.188;2022-08-02T00:02:41;3.05;;;1.02;;
31818;SDS011;18384;48.860;9.188;2022-08-02T00:05:08;2.15;;;1.17;;
31818;SDS011;18384;48.860;9.188;2022-08-02T00:07:35;2.25;;;1.15;;
31818;SDS011;18384;48.860;9.188;2022-08-02T00:14:54;3.33;;;1.40;;
31818;SDS011;18384;48.860;9.188;2022-08-02T00:19:47;3.60;;;1.20;;
31818;SDS011;18384;48.860;9.188;2022-08-02T00:22:13;1.90;;;1.10;;
31818;SDS011;18384;48.860;9.188;2022-08-02T00:24:39;2.42;;;1.17;;
31818;SDS011;18384;48.860;9.188;2022-08-02T00:29:34;2.70;;;1.30;;
31818;SDS011;18384;48.860;9.188;2022-08-02T00:32:01;4.47;;;1.30;;
31818;SDS011;18384;48.860;9.188;2022-08-02T00:34:29;3.28;;;1.20;;
31818;SDS011;18384;48.860;9.188;2022-08-02T00:36:55;4.37;;;1.50;;
31818;SDS011;18384;48.860;9.188;2022-08-02T00:41:49;5.35;;;1.35;;
31818;SDS011;18384;48.860;9.188;2022-08-02T00:44:18;3.83;;;1.80;;
31818;SDS011;18384;48.860;9.188;2022-08-02T00:46:45;7.47;;;2.10;;
31818;SDS011;18384;48.860;9.188;2022-08-02T00:49:12;6.10;;;1.50;;
31818;SDS011;18384;48.860;9.188;2022-08-02T00:51:39;3.20;;;1.50;;
31818;SDS011;18384;48.860;9.188;2022-08-02T00:54:06;4.95;;;1.67;;
31818;SDS011;18384;48.860;9.188;2022-08-02T00:56:33;4.37;;;1.60;;
31818;SDS011;18384;48.860;9.188;2022-08-02T00:59:00;4.70;;;1.60;;
31818;SDS011;18384;48.860;9.188;2022-08-02T01:01:26;4.95;;;1.87;;
31818;SDS011;18384;48.860;9.188;2022-08-02T01:04:09;2.83;;;1.40;;
31818;SDS011;18384;48.860;9.188;2022-08-02T01:06:38;4.03;;;1.58;;
31818;SDS011;18384;48.860;9.188;2022-08-02T01:09:06;3.03;;;1.62;;
31818;SDS011;18384;48.860;9.188;2022-08-02T01:11:33;3.15;;;1.23;;
31818;SDS011;18384;48.860;9.188;2022-08-02T01:14:06;4.40;;;2.22;;
31818;SDS011;18384;48.860;9.188;2022-08-02T01:16:42;3.90;;;1.50;;
31818;SDS011;18384;48.860;9.188;2022-08-02T01:24:03;6.20;;;1.60;;
31818;SDS011;18384;48.860;9.188;2022-08-02T01:27:01;4.47;;;1.87;;
31818;SDS011;18384;48.860;9.188;2022-08-02T01:30:45;4.22;;;1.52;;
31818;SDS011;18384;48.860;9.188;2022-08-02T01:33:17;4.72;;;1.70;;
31818;SDS011;18384;48.860;9.188;2022-08-02T01:35:46;2.87;;;1.37;;
31818;SDS011;18384;48.860;9.188;2022-08-02T01:38:26;2.78;;;1.33;;
31818;SDS011;18384;48.860;9.188;2022-08-02T01:41:01;2.33;;;1.42;;
31818;SDS011;18384;48.860;9.188;2022-08-02T01:43:30;4.82;;;1.70;;
31818;SDS011;18384;48.860;9.188;2022-08-02T01:45:58;2.83;;;1.50;;
31818;SDS011;18384;48.860;9.188;2022-08-02T01:48:26;5.40;;;1.50;;
31818;SDS011;18384;48.860;9.188;2022-08-02T01:50:54;4.28;;;2.10;;
31818;SDS011;18384;48.860;9.188;2022-08-02T01:53:21;3.50;;;1.75;;
31818;SDS011;18384;48.860;9.188;2022-08-02T01:55:52;3.20;;;1.50;;
31818;SDS011;18384;48.860;9.188;2022-08-02T01:58:21;3.83;;;1.60;;
31818;SDS011;18384;48.860;9.188;2022-08-02T02:00:51;4.65;;;1.42;;
31818;SDS011;18384;48.860;9.188;2022-08-02T02:03:21;2.53;;;1.50;;
31818;SDS011;18384;48.860;9.188;2022-08-02T02:05:50;3.28;;;1.52;;
31818;SDS011;18384;48.860;9.188;2022-08-02T02:08:29;3.28;;;1.45;;
31818;SDS011;18384;48.860;9.188;2022-08-02T02:11:00;4.93;;;1.67;;
31818;SDS011;18384;48.860;9.188;2022-08-02T02:13:28;2.62;;;1.27;;
31818;SDS011;18384;48.860;9.188;2022-08-02T02:15:55;3.90;;;1.62;;
31818;SDS011;18384;48.860;9.188;2022-08-02T02:18:28;3.92;;;1.37;;
31818;SDS011;18384;48.860;9.188;2022-08-02T02:20:55;3.40;;;1.60;;
31818;SDS011;18384;48.860;9.188;2022-08-02T02:23:22;2.50;;;1.30;;
31818;SDS011;18384;48.860;9.188;2022-08-02T02:25:48;5.50;;;1.50;;
31818;SDS011;18384;48.860;9.188;2022-08-02T02:28:20;3.97;;;1.67;;
31818;SDS011;18384;48.860;9.188;2022-08-02T02:30:57;5.72;;;1.30;;
31818;SDS011;18384;48.860;9.188;2022-08-02T02:33:34;3.55;;;1.70;;
31818;SDS011;18384;48.860;9.188;2022-08-02T02:36:13;4.55;;;1.70;;
31818;SDS011;18384;48.860;9.188;2022-08-02T02:38:42;2.53;;;1.40;;
31818;SDS011;18384;48.860;9.188;2022-08-02T02:41:09;5.53;;;1.58;;
31818;SDS011;18384;48.860;9.188;2022-08-02T02:43:37;4.20;;;1.35;;
31818;SDS011;18384;48.860;9.188;2022-08-02T02:46:05;3.22;;;1.50;;
31818;SDS011;18384;48.860;9.188;2022-08-02T02:48:34;4.97;;;1.48;;
31818;SDS011;18384;48.860;9.188;2022-08-02T02:51:04;6.75;;;1.50;;
31818;SDS011;18384;48.860;9.188;2022-08-02T02:53:32;5.57;;;1.40;;
31818;SDS011;18384;48.860;9.188;2022-08-02T02:56:00;2.85;;;1.45;;
31818;SDS011;18384;48.860;9.188;2022-08-02T02:58:27;4.68;;;1.70;;
31818;SDS011;18384;48.860;9.188;2022-08-02T03:00:54;2.53;;;1.33;;
31818;SDS011;18384;48.860;9.188;2022-08-02T03:03:40;3.08;;;1.50;;
31818;SDS011;18384;48.860;9.188;2022-08-02T03:06:11;2.85;;;1.52;;
31818;SDS011;18384;48.860;9.188;2022-08-02T03:08:37;4.00;;;1.60;;
31818;SDS011;18384;48.860;9.188;2022-08-02T03:11:03;4.78;;;1.50;;
31818;SDS011;18384;48.860;9.188;2022-08-02T03:13:30;5.60;;;2.10;;
31818;SDS011;18384;48.860;9.188;2022-08-02T03:15:57;5.20;;;1.37;;
31818;SDS011;18384;48.860;9.188;2022-08-02T03:18:44;2.58;;;1.33;;
31818;SDS011;18384;48.860;9.188;2022-08-02T03:21:11;4.57;;;1.83;;
31818;SDS011;18384;48.860;9.188;2022-08-02T03:23:38;4.37;;;1.73;;
31818;SDS011;18384;48.860;9.188;2022-08-02T03:26:06;3.28;;;1.60;;
31818;SDS011;18384;48.860;9.188;2022-08-02T03:28:34;5.62;;;1.52;;
31818;SDS011;18384;48.860;9.188;2022-08-02T03:31:00;3.95;;;1.95;;
31818;SDS011;18384;48.860;9.188;2022-08-02T03:33:27;3.17;;;1.58;;
31818;SDS011;18384;48.860;9.188;2022-08-02T03:35:55;2.53;;;1.60;;
31818;SDS011;18384;48.860;9.188;2022-08-02T03:38:25;7.35;;;1.50;;
31818;SDS011;18384;48.860;9.188;2022-08-02T03:40:52;5.85;;;1.70;;
31818;SDS011;18384;48.860;9.188;2022-08-02T03:43:18;3.85;;;1.52;;
31818;SDS011;18384;48.860;9.188;2022-08-02T03:45:46;4.30;;;2.00;;
31818;SDS011;18384;48.860;9.188;2022-08-02T03:48:13;3.97;;;1.83;;
31818;SDS011;18384;48.860;9.188;2022-08-02T03:50:41;4.68;;;2.00;;
31818;SDS011;18384;48.860;9.188;2022-08-02T03:53:10;3.35;;;1.98;;
31818;SDS011;18384;48.860;9.188;2022-08-02T03:55:38;6.50;;;2.30;;
31818;SDS011;18384;48.860;9.188;2022-08-02T03:58:04;4.97;;;1.98;;
31818;SDS011;18384;48.860;9.188;2022-08-02T04:02:57;4.62;;;2.00;;
31818;SDS011;18384;48.860;9.188;2022-08-02T04:05:23;4.50;;;1.83;;
31818;SDS011;18384;48.860;9.188;2022-08-02T04:07:50;7.22;;;2.40;;
31818;SDS011;18384;48.860;9.188;2022-08-02T04:10:16;3.85;;;2.25;;
31818;SDS011;18384;48.860;9.188;2022-08-02T04:15:10;7.93;;;2.80;;
31818;SDS011;18384;48.860;9.188;2022-08-02T04:17:39;6.50;;;2.60;;
31818;SDS011;18384;48.860;9.188;2022-08-02T04:20:19;6.55;;;2.72;;
31818;SDS011;18384;48.860;9.188;2022-08-02T04:22:56;12.15;;;3.03;;
31818;SDS011;18384;48.860;9.188;2022-08-02T04:25:26;6.20;;;2.45;;
31818;SDS011;18384;48.860;9.188;2022-08-02T04:27:53;6.43;;;2.62;;
31818;SDS011;18384;48.860;9.188;2022-08-02T04:30:19;12.60;;;2.75;;
31818;SDS011;18384;48.860;9.188;2022-08-02T04:32:46;7.57;;;2.72;;
31818;SDS011;18384;48.860;9.188;2022-08-02T04:35:12;8.75;;;2.75;;
31818;SDS011;18384;48.860;9.188;2022-08-02T04:37:39;8.93;;;2.53;;
31818;SDS011;18384;48.860;9.188;2022-08-02T04:40:10;5.28;;;2.30;;
31818;SDS011;18384;48.860;9.188;2022-08-02T04:42:37;4.53;;;2.30;;
31818;SDS011;18384;48.860;9.188;2022-08-02T04:45:04;5.93;;;2.62;;
31818;SDS011;18384;48.860;9.188;2022-08-02T04:47:32;5.53;;;2.47;;
31818;SDS011;18384;48.860;9.188;2022-08-02T04:49:58;6.70;;;2.70;;
31818;SDS011;18384;48.860;9.188;2022-08-02T04:52:24;5.18;;;2.47;;
31818;SDS011;18384;48.860;9.188;2022-08-02T04:54:50;5.57;;;2.33;;
31818;SDS011;18384;48.860;9.188;2022-08-02T04:57:18;6.35;;;2.70;;
31818;SDS011;18384;48.860;9.188;2022-08-02T05:00:05;4.57;;;2.40;;
31818;SDS011;18384;48.860;9.188;2022-08-02T05:02:34;12.18;;;2.30;;
31818;SDS011;18384;48.860;9.188;2022-08-02T05:05:00;8.15;;;2.65;;
31818;SDS011;18384;48.860;9.188;2022-08-02T05:07:27;5.20;;;2.25;;
31818;SDS011;18384;48.860;9.188;2022-08-02T05:09:53;6.72;;;2.92;;
31818;SDS011;18384;48.860;9.188;2022-08-02T05:12:19;6.18;;;2.30;;
31818;SDS011;18384;48.860;9.188;2022-08-02T05:14:46;7.50;;;2.33;;
31818;SDS011;18384;48.860;9.188;2022-08-02T05:17:13;5.05;;;2.30;;
31818;SDS011;18384;48.860;9.188;2022-08-02T05:19:40;5.35;;;2.30;;
31818;SDS011;18384;48.860;9.188;2022-08-02T05:24:32;4.85;;;2.35;;
31818;SDS011;18384;48.860;9.188;2022-08-02T05:26:58;5.35;;;2.45;;
31818;SDS011;18384;48.860;9.188;2022-08-02T05:29:24;7.03;;;2.28;;
31818;SDS011;18384;48.860;9.188;2022-08-02T05:31:51;4.62;;;2.72;;
31818;SDS011;18384;48.860;9.188;2022-08-02T05:34:17;4.72;;;2.60;;
31818;SDS011;18384;48.860;9.188;2022-08-02T05:39:11;6.80;;;2.20;;
31818;SDS011;18384;48.860;9.188;2022-08-02T05:44:04;4.90;;;1.70;;
31818;SDS011;18384;48.860;9.188;2022-08-02T05:48:56;7.18;;;1.73;;
31818;SDS011;18384;48.860;9.188;2022-08-02T05:55:40;3.53;;;1.98;;
31818;SDS011;18384;48.860;9.188;2022-08-02T05:58:23;5.03;;;2.20;;
31818;SDS011;18384;48.860;9.188;2022-08-02T06:01:09;5.68;;;2.12;;
31818;SDS011;18384;48.860;9.188;2022-08-02T06:03:47;10.43;;;2.30;;
31818;SDS011;18384;48.860;9.188;2022-08-02T06:06:16;4.90;;;1.80;;
31818;SDS011;18384;48.860;9.188;2022-08-02T06:08:49;3.03;;;1.83;;
31818;SDS011;18384;48.860;9.188;2022-08-02T06:11:23;9.95;;;2.22;;
31818;SDS011;18384;48.860;9.188;2022-08-02T06:14:01;9.18;;;2.12;;
31818;SDS011;18384;48.860;9.188;2022-08-02T06:16:30;5.50;;;1.87;;
31818;SDS011;18384;48.860;9.188;2022-08-02T06:21:24;3.67;;;1.87;;
31818;SDS011;18384;48.860;9.188;2022-08-02T06:23:52;4.80;;;1.62;;
31818;SDS011;18384;48.860;9.188;2022-08-02T06:26:19;7.93;;;1.92;;
31818;SDS011;18384;48.860;9.188;2022-08-02T06:28:47;3.40;;;1.77;;
31818;SDS011;18384;48.860;9.188;2022-08-02T06:31:14;4.12;;;1.50;;
31818;SDS011;18384;48.860;9.188;2022-08-02T06:36:14;4.95;;;1.67;;
31818;SDS011;18384;48.860;9.188;2022-08-02T06:39:02;4.12;;;2.03;;
31818;SDS011;18384;48.860;9.188;2022-08-02T06:41:37;5.45;;;1.83;;
31818;SDS011;18384;48.860;9.188;2022-08-02T06:44:09;4.05;;;2.05;;
31818;SDS011;18384;48.860;9.188;2022-08-02T06:46:36;5.20;;;2.00;;
31818;SDS011;18384;48.860;9.188;2022-08-02T06:51:28;5.25;;;2.17;;
31818;SDS011;18384;48.860;9.188;2022-08-02T06:56:20;7.35;;;2.70;;
31818;SDS011;18384;48.860;9.188;2022-08-02T06:58:46;6.37;;;2.60;;
31818;SDS011;18384;48.860;9.188;2022-08-02T07:01:12;5.78;;;2.60;;
31818;SDS011;18384;48.860;9.188;2022-08-02T07:06:06;6.10;;;2.85;;
31818;SDS011;18384;48.860;9.188;2022-08-02T07:08:33;5.78;;;2.40;;
31818;SDS011;18384;48.860;9.188;2022-08-02T07:11:05;6.15;;;2.85;;
31818;SDS011;18384;48.860;9.188;2022-08-02T07:13:33;5.85;;;3.00;;
31818;SDS011;18384;48.860;9.188;2022-08-02T07:16:00;7.37;;;2.62;;
31818;SDS011;18384;48.860;9.188;2022-08-02T07:18:28;11.50;;;3.25;;
31818;SDS011;18384;48.860;9.188;2022-08-02T07:20:56;7.68;;;3.50;;
31818;SDS011;18384;48.860;9.188;2022-08-02T07:23:22;8.05;;;3.08;;
31818;SDS011;18384;48.860;9.188;2022-08-02T07:28:14;9.20;;;3.47;;
31818;SDS011;18384;48.860;9.188;2022-08-02T07:30:40;4.97;;;3.22;;
31818;SDS011;18384;48.860;9.188;2022-08-02T07:33:07;7.65;;;3.40;;
31818;SDS011;18384;48.860;9.188;2022-08-02T07:35:33;10.80;;;3.97;;
31818;SDS011;18384;48.860;9.188;2022-08-02T07:38:00;4.65;;;2.83;;
31818;SDS011;18384;48.860;9.188;2022-08-02T07:42:53;6.78;;;3.50;;
31818;SDS011;18384;48.860;9.188;2022-08-02T07:45:21;10.75;;;3.75;;
31818;SDS011;18384;48.860;9.188;2022-08-02T07:47:48;8.75;;;3.35;;
31818;SDS011;18384;48.860;9.188;2022-08-02T07:50:16;7.03;;;3.35;;
31818;SDS011;18384;48.860;9.188;2022-08-02T07:52:44;5.18;;;3.30;;
31818;SDS011;18384;48.860;9.188;2022-08-02T07:55:11;7.45;;;3.65;;
31818;SDS011;18384;48.860;9.188;2022-08-02T07:57:39;6.57;;;3.58;;
31818;SDS011;18384;48.860;9.188;2022-08-02T08:00:07;5.70;;;3.53;;
31818;SDS011;18384;48.860;9.188;2022-08-02T08:02:34;8.45;;;3.83;;
31818;SDS011;18384;48.860;9.188;2022-08-02T08:05:00;8.20;;;3.45;;
31818;SDS011;18384;48.860;9.188;2022-08-02T08:09:52;11.15;;;3.78;;
31818;SDS011;18384;48.860;9.188;2022-08-02T08:14:45;10.77;;;3.35;;
31818;SDS011;18384;48.860;9.188;2022-08-02T08:19:37;16.02;;;2.97;;
31818;SDS011;18384;48.860;9.188;2022-08-02T08:22:03;11.05;;;4.12;;
31818;SDS011;18384;48.860;9.188;2022-08-02T08:24:30;6.25;;;3.45;;
31818;SDS011;18384;48.860;9.188;2022-08-02T08:29:22;14.30;;;4.32;;
31818;SDS011;18384;48.860;9.188;2022-08-02T08:31:50;4.05;;;2.97;;
31818;SDS011;18384;48.860;9.188;2022-08-02T08:34:17;5.18;;;3.33;;
31818;SDS011;18384;48.860;9.188;2022-08-02T08:39:09;5.62;;;3.22;;
31818;SDS011;18384;48.860;9.188;2022-08-02T08:44:01;10.00;;;3.42;;
31818;SDS011;18384;48.860;9.188;2022-08-02T08:46:29;8.77;;;2.90;;
31818;SDS011;18384;48.860;9.188;2022-08-02T08:49:09;13.05;;;3.97;;
31818;SDS011;18384;48.860;9.188;2022-08-02T08:52:00;5.90;;;3.47;;
31818;SDS011;18384;48.860;9.188;2022-08-02T08:54:30;4.62;;;2.62;;
31818;SDS011;18384;48.860;9.188;2022-08-02T08:56:58;4.28;;;2.60;;
31818;SDS011;18384;48.860;9.188;2022-08-02T08:59:27;6.10;;;3.17;;
31818;SDS011;18384;48.860;9.188;2022-08-02T09:01:53;8.20;;;2.83;;
31818;SDS011;18384;48.860;9.188;2022-08-02T09:04:21;8.57;;;2.70;;
31818;SDS011;18384;48.860;9.188;2022-08-02T09:06:47;6.70;;;3.17;;
31818;SDS011;18384;48.860;9.188;2022-08-02T09:09:14;6.62;;;3.25;;
31818;SDS011;18384;48.860;9.188;2022-08-02T09:14:06;5.80;;;2.80;;
31818;SDS011;18384;48.860;9.188;2022-08-02T09:19:15;5.00;;;3.05;;
31818;SDS011;18384;48.860;9.188;2022-08-02T09:21:44;5.32;;;3.00;;
31818;SDS011;18384;48.860;9.188;2022-08-02T09:24:16;4.20;;;2.70;;
31818;SDS011;18384;48.860;9.188;2022-08-02T09:26:47;6.47;;;3.28;;
31818;SDS011;18384;48.860;9.188;2022-08-02T09:29:15;5.97;;;3.12;;
31818;SDS011;18384;48.860;9.188;2022-08-02T09:31:43;6.20;;;3.08;;
31818;SDS011;18384;48.860;9.188;2022-08-02T09:34:10;3.15;;;2.60;;
31818;SDS011;18384;48.860;9.188;2022-08-02T09:39:13;7.12;;;2.45;;
31818;SDS011;18384;48.860;9.188;2022-08-02T09:41:42;4.85;;;3.30;;
31818;SDS011;18384;48.860;9.188;2022-08-02T09:44:13;4.90;;;2.80;;
31818;SDS011;18384;48.860;9.188;2022-08-02T09:46:43;4.90;;;2.72;;
31818;SDS011;18384;48.860;9.188;2022-08-02T09:49:11;4.90;;;2.25;;
31818;SDS011;18384;48.860;9.188;2022-08-02T09:51:50;4.45;;;2.33;;
31818;SDS011;18384;48.860;9.188;2022-08-02T09:54:27;4.53;;;2.90;;
31818;SDS011;18384;48.860;9.188;2022-08-02T09:56:54;6.68;;;2.85;;
31818;SDS011;18384;48.860;9.188;2022-08-02T09:59:26;4.70;;;2.62;;
31818;SDS011;18384;48.860;9.188;2022-08-02T10:01:53;3.92;;;2.65;;
31818;SDS011;18384;48.860;9.188;2022-08-02T10:04:22;5.32;;;2.53;;
31818;SDS011;18384;48.860;9.188;2022-08-02T10:06:51;4.47;;;2.85;;
31818;SDS011;18384;48.860;9.188;2022-08-02T10:09:19;4.82;;;2.53;;
31818;SDS011;18384;48.860;9.188;2022-08-02T10:11:46;7.82;;;2.58;;
31818;SDS011;18384;48.860;9.188;2022-08-02T10:14:13;3.87;;;2.83;;
31818;SDS011;18384;48.860;9.188;2022-08-02T10:16:41;5.18;;;2.65;;
31818;SDS011;18384;48.860;9.188;2022-08-02T10:19:08;4.90;;;2.83;;
31818;SDS011;18384;48.860;9.188;2022-08-02T10:24:45;3.78;;;2.30;;
31818;SDS011;18384;48.860;9.188;2022-08-02T10:27:16;3.62;;;2.60;;
31818;SDS011;18384;48.860;9.188;2022-08-02T10:29:44;6.57;;;2.37;;
31818;SDS011;18384;48.860;9.188;2022-08-02T10:32:36;4.53;;;2.85;;
31818;SDS011;18384;48.860;9.188;2022-08-02T10:35:14;3.83;;;2.30;;
31818;SDS011;18384;48.860;9.188;2022-08-02T10:37:43;4.32;;;1.90;;
31818;SDS011;18384;48.860;9.188;2022-08-02T10:40:11;6.75;;;2.22;;
31818;SDS011;18384;48.860;9.188;2022-08-02T10:42:53;3.90;;;2.67;;
31818;SDS011;18384;48.860;9.188;2022-08-02T10:45:23;7.28;;;2.60;;
31818;SDS011;18384;48.860;9.188;2022-08-02T10:48:03;6.12;;;2.67;;
31818;SDS011;18384;48.860;9.188;2022-08-02T10:53:37;10.60;;;2.87;;
31818;SDS011;18384;48.860;9.188;2022-08-02T10:56:04;5.93;;;2.78;;
31818;SDS011;18384;48.860;9.188;2022-08-02T10:58:31;6.43;;;2.60;;
31818;SDS011;18384;48.860;9.188;2022-08-02T11:01:05;5.40;;;2.90;;
31818;SDS011;18384;48.860;9.188;2022-08-02T11:03:57;5.57;;;2.75;;
31818;SDS011;18384;48.860;9.188;2022-08-02T11:06:24;6.45;;;2.67;;
31818;SDS011;18384;48.860;9.188;2022-08-02T11:08:59;4.22;;;2.25;;
31818;SDS011;18384;48.860;9.188;2022-08-02T11:12:16;4.20;;;2.12;;
31818;SDS011;18384;48.860;9.188;2022-08-02T11:14:45;4.37;;;2.35;;
31818;SDS011;18384;48.860;9.188;2022-08-02T11:17:38;4.22;;;2.12;;
31818;SDS011;18384;48.860;9.188;2022-08-02T11:20:24;5.40;;;2.35;;
31818;SDS011;18384;48.860;9.188;2022-08-02T11:22:52;3.05;;;1.87;;
31818;SDS011;18384;48.860;9.188;2022-08-02T11:25:31;3.40;;;2.12;;
31818;SDS011;18384;48.860;9.188;2022-08-02T11:30:34;8.13;;;1.98;;
31818;SDS011;18384;48.860;9.188;2022-08-02T11:33:01;3.20;;;2.03;;
31818;SDS011;18384;48.860;9.188;2022-08-02T11:35:35;3.37;;;1.73;;
31818;SDS011;18384;48.860;9.188;2022-08-02T11:38:17;9.50;;;2.15;;
31818;SDS011;18384;48.860;9.188;2022-08-02T11:40:45;3.37;;;2.20;;
31818;SDS011;18384;48.860;9.188;2022-08-02T11:43:16;3.37;;;1.80;;
31818;SDS011;18384;48.860;9.188;2022-08-02T11:45:52;3.97;;;2.12;;
31818;SDS011;18384;48.860;9.188;2022-08-02T11:48:35;3.15;;;1.73;;
31818;SDS011;18384;48.860;9.188;2022-08-02T11:51:11;4.28;;;1.80;;
31818;SDS011;18384;48.860;9.188;2022-08-02T11:53:52;4.97;;;1.77;;
31818;SDS011;18384;48.860;9.188;2022-08-02T11:56:29;3.95;;;1.70;;
31818;SDS011;18384;48.860;9.188;2022-08-02T11:59:00;4.40;;;1.80;;
31818;SDS011;18384;48.860;9.188;2022-08-02T12:01:30;2.40;;;1.73;;
31818;SDS011;18384;48.860;9.188;2022-08-02T12:03:58;2.62;;;1.70;;
31818;SDS011;18384;48.860;9.188;2022-08-02T12:06:27;4.25;;;1.77;;
31818;SDS011;18384;48.860;9.188;2022-08-02T12:09:08;11.43;;;1.95;;
31818;SDS011;18384;48.860;9.188;2022-08-02T12:11:37;2.70;;;1.67;;
31818;SDS011;18384;48.860;9.188;2022-08-02T12:14:04;5.95;;;1.95;;
31818;SDS011;18384;48.860;9.188;2022-08-02T12:16:34;3.80;;;1.90;;
31818;SDS011;18384;48.860;9.188;2022-08-02T12:19:22;3.00;;;2.00;;
31818;SDS011;18384;48.860;9.188;2022-08-02T12:22:07;3.87;;;1.87;;
31818;SDS011;18384;48.860;9.188;2022-08-02T12:24:49;2.72;;;1.62;;
31818;SDS011;18384;48.860;9.188;2022-08-02T12:27:26;6.10;;;2.33;;
31818;SDS011;18384;48.860;9.188;2022-08-02T12:29:59;7.90;;;1.85;;
31818;SDS011;18384;48.860;9.188;2022-08-02T12:32:43;2.92;;;1.52;;
31818;SDS011;18384;48.860;9.188;2022-08-02T12:35:14;3.22;;;1.70;;
31818;SDS011;18384;48.860;9.188;2022-08-02T12:37:45;3.33;;;1.70;;
31818;SDS011;18384;48.860;9.188;2022-08-02T12:40:19;3.05;;;1.83;;
31818;SDS011;18384;48.860;9.188;2022-08-02T12:42:58;5.75;;;1.52;;
31818;SDS011;18384;48.860;9.188;2022-08-02T12:45:27;2.42;;;1.52;;
31818;SDS011;18384;48.860;9.188;2022-08-02T12:47:57;4.30;;;1.60;;
31818;SDS011;18384;48.860;9.188;2022-08-02T12:50:31;5.40;;;1.75;;
31818;SDS011;18384;48.860;9.188;2022-08-02T12:53:05;3.50;;;1.50;;
31818;SDS011;18384;48.860;9.188;2022-08-02T12:55:46;3.12;;;1.48;;
31818;SDS011;18384;48.860;9.188;2022-08-02T12:58:25;3.75;;;1.37;;
31818;SDS011;18384;48.860;9.188;2022-08-02T13:00:52;1.80;;;1.20;;
31818;SDS011;18384;48.860;9.188;2022-08-02T13:03:21;3.22;;;1.55;;
31818;SDS011;18384;48.860;9.188;2022-08-02T13:05:48;3.65;;;1.65;;
31818;SDS011;18384;48.860;9.188;2022-08-02T13:08:14;3.20;;;1.50;;
31818;SDS011;18384;48.860;9.188;2022-08-02T13:10:41;2.30;;;1.40;;
31818;SDS011;18384;48.860;9.188;2022-08-02T13:13:08;2.78;;;2.17;;
31818;SDS011;18384;48.860;9.188;2022-08-02T13:15:35;2.50;;;1.50;;
31818;SDS011;18384;48.860;9.188;2022-08-02T13:18:02;3.10;;;1.50;;
31818;SDS011;18384;48.860;9.188;2022-08-02T13:20:28;5.15;;;1.48;;
31818;SDS011;18384;48.860;9.188;2022-08-02T13:22:54;3.67;;;1.40;;
31818;SDS011;18384;48.860;9.188;2022-08-02T13:25:21;2.10;;;1.08;;
31818;SDS011;18384;48.860;9.188;2022-08-02T13:27:48;2.53;;;1.60;;
31818;SDS011;18384;48.860;9.188;2022-08-02T13:30:14;2.22;;;1.40;;
31818;SDS011;18384;48.860;9.188;2022-08-02T13:32:41;2.17;;;1.50;;
31818;SDS011;18384;48.860;9.188;2022-08-02T13:35:08;6.37;;;1.40;;
31818;SDS011;18384;48.860;9.188;2022-08-02T13:37:35;4.82;;;1.50;;
31818;SDS011;18384;48.860;9.188;2022-08-02T13:40:02;5.78;;;1.30;;
31818;SDS011;18384;48.860;9.188;2022-08-02T13:42:28;5.25;;;1.75;;
31818;SDS011;18384;48.860;9.188;2022-08-02T13:44:55;2.35;;;1.17;;
31818;SDS011;18384;48.860;9.188;2022-08-02T13:47:21;2.03;;;1.30;;
31818;SDS011;18384;48.860;9.188;2022-08-02T13:49:47;3.37;;;1.15;;
31818;SDS011;18384;48.860;9.188;2022-08-02T13:52:15;1.55;;;0.90;;
31818;SDS011;18384;48.860;9.188;2022-08-02T13:54:41;8.98;;;1.20;;
31818;SDS011;18384;48.860;9.188;2022-08-02T13:57:07;4.18;;;1.48;;
31818;SDS011;18384;48.860;9.188;2022-08-02T13:59:33;2.60;;;1.27;;
31818;SDS011;18384;48.860;9.188;2022-08-02T14:02:00;2.33;;;1.20;;
31818;SDS011;18384;48.860;9.188;2022-08-02T14:04:26;3.95;;;1.15;;
31818;SDS011;18384;48.860;9.188;2022-08-02T14:06:55;2.10;;;1.27;;
31818;SDS011;18384;48.860;9.188;2022-08-02T14:09:22;4.07;;;1.80;;
31818;SDS011;18384;48.860;9.188;2022-08-02T14:11:48;5.37;;;1.33;;
31818;SDS011;18384;48.860;9.188;2022-08-02T14:14:14;3.58;;;1.35;;
31818;SDS011;18384;48.860;9.188;2022-08-02T14:16:41;3.25;;;1.10;;
31818;SDS011;18384;48.860;9.188;2022-08-02T14:19:11;5.15;;;1.40;;
31818;SDS011;18384;48.860;9.188;2022-08-02T14:21:38;1.85;;;1.20;;
31818;SDS011;18384;48.860;9.188;2022-08-02T14:24:05;2.17;;;1.12;;
31818;SDS011;18384;48.860;9.188;2022-08-02T14:26:31;2.80;;;1.40;;
31818;SDS011;18384;48.860;9.188;2022-08-02T14:28:57;2.10;;;1.40;;
31818;SDS011;18384;48.860;9.188;2022-08-02T14:31:23;10.57;;;1.40;;
31818;SDS011;18384;48.860;9.188;2022-08-02T14:33:49;2.78;;;1.20;;
31818;SDS011;18384;48.860;9.188;2022-08-02T14:36:15;5.32;;;1.33;;
31818;SDS011;18384;48.860;9.188;2022-08-02T14:38:42;2.92;;;1.20;;
31818;SDS011;18384;48.860;9.188;2022-08-02T14:41:08;2.42;;;1.20;;
31818;SDS011;18384;48.860;9.188;2022-08-02T14:43:34;2.28;;;1.23;;
31818;SDS011;18384;48.860;9.188;2022-08-02T14:46:18;7.47;;;1.27;;
31818;SDS011;18384;48.860;9.188;2022-08-02T14:48:45;2.08;;;1.30;;
31818;SDS011;18384;48.860;9.188;2022-08-02T14:51:11;2.85;;;1.45;;
31818;SDS011;18384;48.860;9.188;2022-08-02T14:53:38;2.00;;;1.30;;
31818;SDS011;18384;48.860;9.188;2022-08-02T14:56:05;2.53;;;1.40;;
31818;SDS011;18384;48.860;9.188;2022-08-02T14:58:31;2.72;;;1.30;;
31818;SDS011;18384;48.860;9.188;2022-08-02T15:00:57;3.83;;;0.90;;
31818;SDS011;18384;48.860;9.188;2022-08-02T15:03:23;4.32;;;1.25;;
31818;SDS011;18384;48.860;9.188;2022-08-02T15:05:49;4.28;;;1.25;;
31818;SDS011;18384;48.860;9.188;2022-08-02T15:08:15;2.08;;;1.30;;
31818;SDS011;18384;48.860;9.188;2022-08-02T15:10:41;2.37;;;1.15;;
31818;SDS011;18384;48.860;9.188;2022-08-02T15:13:08;3.37;;;1.10;;
31818;SDS011;18384;48.860;9.188;2022-08-02T15:15:34;2.60;;;1.37;;
31818;SDS011;18384;48.860;9.188;2022-08-02T15:18:01;5.12;;;1.30;;
31818;SDS011;18384;48.860;9.188;2022-08-02T15:20:27;2.58;;;1.50;;
31818;SDS011;18384;48.860;9.188;2022-08-02T15:22:53;3.97;;;1.33;;
31818;SDS011;18384;48.860;9.188;2022-08-02T15:25:19;2.37;;;1.33;;
31818;SDS011;18384;48.860;9.188;2022-08-02T15:27:47;2.67;;;1.02;;
31818;SDS011;18384;48.860;9.188;2022-08-02T15:30:13;6.82;;;1.12;;
31818;SDS011;18384;48.860;9.188;2022-08-02T15:32:40;6.47;;;1.45;;
31818;SDS011;18384;48.860;9.188;2022-08-02T15:35:06;3.90;;;1.30;;
31818;SDS011;18384;48.860;9.188;2022-08-02T15:37:32;2.40;;;1.40;;
31818;SDS011;18384;48.860;9.188;2022-08-02T15:39:59;2.70;;;1.10;;
31818;SDS011;18384;48.860;9.188;2022-08-02T15:42:25;3.35;;;1.55;;
31818;SDS011;18384;48.860;9.188;2022-08-02T15:44:51;2.85;;;1.20;;
31818;SDS011;18384;48.860;9.188;2022-08-02T15:47:17;2.80;;;1.30;;
31818;SDS011;18384;48.860;9.188;2022-08-02T15:49:45;4.30;;;1.30;;
31818;SDS011;18384;48.860;9.188;2022-08-02T15:52:12;5.80;;;1.48;;
31818;SDS011;18384;48.860;9.188;2022-08-02T15:54:39;3.58;;;1.17;;
31818;SDS011;18384;48.860;9.188;2022-08-02T15:57:05;3.10;;;1.20;;
31818;SDS011;18384;48.860;9.188;2022-08-02T15:59:31;1.60;;;1.08;;
31818;SDS011;18384;48.860;9.188;2022-08-02T16:01:58;1.83;;;0.93;;
31818;SDS011;18384;48.860;9.188;2022-08-02T16:04:24;1.70;;;0.98;;
31818;SDS011;18384;48.860;9.188;2022-08-02T16:06:50;2.00;;;1.00;;
31818;SDS011;18384;48.860;9.188;2022-08-02T16:09:16;1.90;;;1.20;;
31818;SDS011;18384;48.860;9.188;2022-08-02T16:11:42;2.00;;;1.20;;
31818;SDS011;18384;48.860;9.188;2022-08-02T16:14:08;3.30;;;1.02;;
31818;SDS011;18384;48.860;9.188;2022-08-02T16:16:35;2.97;;;1.30;;
31818;SDS011;18384;48.860;9.188;2022-08-02T16:19:02;3.53;;;1.35;;
31818;SDS011;18384;48.860;9.188;2022-08-02T16:21:29;2.78;;;1.40;;
31818;SDS011;18384;48.860;9.188;2022-08-02T16:23:55;4.07;;;1.00;;
31818;SDS011;18384;48.860;9.188;2022-08-02T16:26:22;2.97;;;1.30;;
31818;SDS011;18384;48.860;9.188;2022-08-02T16:28:53;3.45;;;1.40;;